Latest Coastal Weather Observations for Hopetoun North

IDW60701

Issued at 4:15 pm WST Monday 20 October 2014 (issued every 10 minutes, with the page automatically refreshed every 10 minutes)

About coastal observations | Map of coastal stations | Coastal observations for WA | Marine services | Other Formats
Station Details ID: 009961 Name: HOPETOUN NORTH Lat: -33.93 Lon: 120.13 Height: 26.0 m
Data from the previous 72 hours. | See also: Recent months at Hopetoun North
Date/Time
WST
Temp

°C
Wind Pressure Rain
since 9am
mm
Weather Cloud Vis
km
Sea
Height
m
Swell
Dir
 
Speed
knots
Gust
knots
hPa Trend Height
m
Period
s
Dir
20/04:00pm 17.1 SW 4 5 1013.4 - 1.2 - - - - - - -
20/03:30pm 16.5 SW 10 13 1013.1 - 0.8 - - - - - - -
20/03:00pm 18.3 SW 9 13 1012.6 - 0.8 Recent precip. - - - - - -
20/02:30pm 18.7 SW 10 14 1012.5 - 0.8 - - - - - - -
20/02:00pm 18.9 SW 11 15 1012.1 - 0.4 - - - - - - -
20/01:30pm 18.1 SW 12 16 1011.9 - 0.4 - - - - - - -
20/01:00pm 18.6 W 8 14 1011.9 - 0.4 - - - - - - -
20/12:30pm 19.5 SW 11 22 1011.4 - 0.0 - - - - - - -
20/12:00pm 22.7 NW 11 15 1011.0 - 0.0 - - - - - - -
20/11:30am 21.7 NW 9 16 1011.1 - 0.0 - - - - - - -
20/11:00am 19.8 NW 9 15 1011.5 - 0.0 - - - - - - -
20/10:30am 20.0 WNW 9 14 1011.6 - 0.0 - - - - - - -
20/10:00am 19.7 NW 8 11 1011.6 - 0.0 - - - - - - -
20/09:30am 18.3 NW 10 16 1011.8 - 0.0 - - - - - - -
20/09:00am 17.8 WNW 9 13 1011.9 - 7.4 - - - - - - -
20/08:30am 17.5 NNW 11 16 1011.8 - 7.4 - - - - - - -
20/08:00am 17.0 NNW 10 15 1011.6 - 7.4 - - - - - - -
20/07:30am 16.2 NNW 11 16 1011.4 - 7.4 - - - - - - -
20/07:00am 15.1 N 11 17 1011.4 - 7.4 - - - - - - -
20/06:30am 13.5 N 7 10 1011.3 - 7.4 - - - - - - -
20/06:00am 12.8 N 9 12 1010.9 - 7.4 - - - - - - -
20/05:30am 12.2 N 6 9 1010.9 - 7.4 - - - - - - -
20/05:00am 11.5 NE 4 4 1010.6 - 7.4 - - - - - - -
20/04:30am 12.1 NE 6 8 1010.0 - 7.4 - - - - - - -
20/04:00am 11.6 NNE 5 7 1010.0 - 7.4 - - - - - - -
20/03:30am 11.8 NNE 3 5 1009.9 - 7.4 - - - - - - -
20/03:00am 12.8 N 5 8 1009.9 - 7.4 Recent precip. - - - - - -
20/02:30am 12.5 N 3 4 1010.0 - 7.4 - - - - - - -
20/02:00am 12.4 N 4 5 1009.9 - 7.2 - - - - - - -
20/01:30am 12.4 N 4 5 1010.0 - 7.2 - - - - - - -
20/01:00am 12.4 N 4 6 1010.2 - 7.2 - - - - - - -
20/12:30am 12.5 N 3 4 1010.1 - 7.2 - - - - - - -
20/12:00am 13.0 NNE 5 6 1010.2 - 7.2 - - - - - - -
 
Date/Time
WST
Temp

°C
Wind Pressure Rain
since 9am
mm
Weather Cloud Vis
km
Sea
Height
m
Swell
Dir
 
Speed
knots
Gust
knots
hPa Trend Height
m
Period
s
Dir
19/11:30pm 13.7 NNE 7 9 1009.8 - 7.2 - - - - - - -
19/11:00pm 14.5 NNE 11 16 1010.0 - 7.2 - - - - - - -
19/10:30pm 15.1 NNE 12 17 1009.9 - 7.2 - - - - - - -
19/10:00pm 15.3 NNE 11 17 1009.9 - 7.2 - - - - - - -
19/09:30pm 14.9 NNE 13 17 1010.1 - 7.2 - - - - - - -
19/09:00pm 15.9 NE 14 21 1011.0 - 7.2 - - - - - - -
19/08:30pm 15.9 N 8 11 1011.7 - 7.2 - - - - - - -
19/08:00pm 15.8 N 7 11 1011.6 - 7.2 - - - - - - -
19/07:30pm 15.7 N 7 10 1011.2 - 7.2 - - - - - - -
19/07:00pm 15.9 NNE 4 5 1010.3 - 7.2 - - - - - - -
19/06:30pm 16.3 NE 3 4 1009.9 - 7.2 - - - - - - -
19/06:00pm 17.0 E 5 6 1009.2 - 7.2 - - - - - - -
19/05:30pm 17.2 ESE 5 7 1008.8 - 7.2 - - - - - - -
19/05:00pm 17.1 ESE 10 14 1009.3 - 7.2 - - - - - - -
19/04:30pm 16.5 ESE 13 20 1010.1 - 7.2 - - - - - - -
19/04:00pm 15.8 ESE 17 28 1010.8 - 7.2 - - - - - - -
19/03:51pm 15.8 ESE 17 28 1010.8 - 7.2 - - - - - - -
19/03:30pm 16.2 ESE 17 26 1011.1 - 7.2 - - - - - - -
19/03:00pm 16.1 ESE 19 29 1011.0 - 7.2 - - - - - - -
19/02:30pm 16.2 ESE 20 30 1011.9 - 7.2 - - - - - - -
19/02:00pm 16.0 ESE 22 33 1011.2 - 7.2 - - - - - - -
19/01:30pm 15.7 ESE 21 34 1012.0 - 7.2 - - - - - - -
19/01:01pm 15.3 SE 22 34 1012.4 - 7.2 - - - - - - -
19/01:00pm 15.3 SE 22 32 1012.4 - 7.2 - - - - - - -
19/12:31pm 14.7 SE 19 30 1013.4 - 7.2 - - - - - - -
19/12:30pm 14.7 SE 20 30 1013.4 - 7.2 - - - - - - -
19/12:12pm 14.7 ESE 18 29 1014.3 - 7.2 - - - - - - -
19/12:00pm 14.6 ESE 18 27 1014.9 - 7.0 Rain - - - - - -
19/11:30am 14.7 ESE 18 28 1015.3 - 6.2 - - - - - - -
19/11:00am 14.8 ESE 19 30 1015.6 - 6.0 - - - - - - -
19/10:30am 14.8 SE 22 33 1015.8 - 6.0 - - - - - - -
19/10:11am 14.6 SE 19 29 1016.3 - 5.8 - - - - - - -
19/10:00am 14.7 ESE 20 29 1016.4 - 5.6 - - - - - - -
19/09:38am 14.0 SE 18 28 1017.2 - 4.6 - - - - - - -
19/09:30am 14.2 ESE 18 25 1017.5 - 3.6 - - - - - - -
19/09:16am 13.9 SE 17 27 1017.6 - 1.8 - - - - - - -
19/09:00am 13.8 SE 18 26 1017.7 - 29.4 Rain - - - - - -
19/08:30am 13.8 SE 18 27 1017.5 - 27.4 - - - - - - -
19/08:00am 13.6 SE 16 23 1017.7 - 26.4 - - - - - - -
19/07:30am 13.4 SE 16 24 1018.0 - 25.2 - - - - - - -
19/07:00am 13.4 SE 14 21 1018.3 - 21.4 - - - - - - -
19/06:30am 13.4 SE 16 26 1017.9 - 20.4 - - - - - - -
19/06:03am 13.4 SE 16 26 1017.8 - 19.8 - - - - - - -
19/06:00am 13.5 SE 17 26 1017.7 - 19.6 Rain - - - - - -
19/05:30am 14.5 SE 17 24 1017.1 - 19.2 - - - - - - -
19/05:09am 14.3 SE 18 29 1017.1 - 19.2 - - - - - - -
19/05:00am 14.1 SE 17 24 1017.0 - 19.2 - - - - - - -
19/04:33am 14.1 SE 16 26 1017.2 - 19.2 - - - - - - -
19/04:30am 13.8 SE 16 24 1017.1 - 19.2 - - - - - - -
19/04:02am 13.6 ESE 16 27 1017.4 - 19.2 - - - - - - -
19/04:00am 13.7 ESE 15 24 1017.3 - 19.2 - - - - - - -
19/03:30am 14.4 SE 16 24 1017.1 - 19.0 - - - - - - -
19/03:00am 13.8 SE 17 28 1017.2 - 19.0 Recent precip. - - - - - -
19/02:54am 14.1 SE 16 28 1017.1 - 19.0 - - - - - - -
19/02:30am 13.8 SE 15 24 1017.0 - 19.0 - - - - - - -
19/02:00am 13.7 SE 14 22 1018.0 - 18.8 - - - - - - -
19/01:30am 13.8 SE 14 23 1018.1 - 18.8 - - - - - - -
19/01:00am 13.9 SE 13 20 1018.3 - 18.8 - - - - - - -
19/12:30am 14.0 SE 13 21 1018.6 - 18.8 - - - - - - -
19/12:00am 13.5 SE 17 24 1018.5 - 18.8 Recent precip. - - - - - -
 
Date/Time
WST
Temp

°C
Wind Pressure Rain
since 9am
mm
Weather Cloud Vis
km
Sea
Height
m
Swell
Dir
 
Speed
knots
Gust
knots
hPa Trend Height
m
Period
s
Dir
18/11:30pm 13.2 SE 11 19 1019.4 - 18.6 - - - - - - -
18/11:00pm 13.1 SE 13 20 1019.2 - 18.4 - - - - - - -
18/10:30pm 13.6 SE 15 23 1019.5 - 18.4 - - - - - - -
18/10:00pm 13.8 SE 14 21 1019.1 - 18.2 - - - - - - -
18/09:30pm 14.1 SE 13 19 1019.4 - 18.2 - - - - - - -
18/09:00pm 13.5 SE 12 19 1019.5 - 18.2 - - - - - - -
18/08:30pm 13.8 SE 13 19 1019.2 - 18.2 - - - - - - -
18/08:00pm 13.5 SE 12 21 1018.8 - 18.2 - - - - - - -
18/07:30pm 13.6 SE 14 20 1018.7 - 17.8 - - - - - - -
18/07:00pm 13.3 SSE 16 24 1018.0 - 17.6 - - - - - - -
18/06:30pm 14.5 SE 14 21 1017.3 - 16.8 - - - - - - -
18/06:00pm 14.2 SE 14 20 1016.9 - 16.8 Recent precip. - - - - - -
18/05:30pm 13.6 SE 14 24 1016.6 - 16.8 - - - - - - -
18/05:00pm 14.9 SE 13 19 1016.3 - 16.6 - - - - - - -
18/04:30pm 14.9 SSE 14 20 1015.5 - 16.6 - - - - - - -
18/04:00pm 15.2 SE 13 20 1014.9 - 16.6 - - - - - - -
18/03:30pm 15.2 SE 15 21 1014.8 - 16.6 - - - - - - -
18/03:00pm 14.6 SSE 15 23 1014.7 - 16.6 Recent precip. - - - - - -
18/02:30pm 14.2 SSE 13 20 1015.3 - 16.4 - - - - - - -
18/02:00pm 14.8 SSE 16 22 1014.9 - 16.4 - - - - - - -
18/01:30pm 14.7 SE 15 23 1015.0 - 16.2 - - - - - - -
18/01:00pm 14.3 SSE 12 17 1015.9 - 16.2 - - - - - - -
18/12:30pm 14.4 SSE 13 19 1014.9 - 15.2 - - - - - - -
18/12:00pm 14.1 SSE 17 25 1014.2 - 14.8 Rain - - - - - -
18/11:30am 13.8 S 17 25 1015.3 - 13.4 - - - - - - -
18/11:00am 13.5 SSE 16 23 1015.2 - 10.4 - - - - - - -
18/10:30am 13.4 SSE 15 25 1014.5 - 7.0 - - - - - - -
18/10:21am 13.7 SSE 17 28 1014.8 - 5.6 - - - - - - -
18/10:00am 13.4 S 20 29 1014.1 - 4.4 - - - - - - -
18/09:30am 13.7 SSE 17 26 1014.4 - 1.2 - - - - - - -
18/09:00am 13.9 SSE 17 24 1014.6 - 24.4 Rain - - - - - -
18/08:30am 14.2 SSE 14 20 1014.7 - 23.0 - - - - - - -
18/08:00am 14.1 SSE 14 20 1014.7 - 21.8 - - - - - - -
18/07:30am 14.5 SE 13 19 1014.7 - 18.8 - - - - - - -
18/07:00am 14.4 SE 12 20 1014.5 - 17.2 - - - - - - -
18/06:30am 14.1 SE 8 13 1014.7 - 14.4 - - - - - - -
18/06:00am 14.6 SSE 6 9 1015.6 - 7.0 Rain - - - - - -
18/05:30am 14.4 SE 7 10 1014.8 - 5.6 - - - - - - -
18/05:00am 14.9 SSE 7 13 1014.9 - 1.8 - - - - - - -
18/04:30am 14.7 SE 8 11 1014.3 - 1.4 - - - - - - -
18/04:00am 15.2 SE 5 8 1014.9 - 0.4 - - - - - - -
18/03:30am 15.1 SE 3 6 1014.8 - 0.4 - - - - - - -
18/03:00am 14.6 ESE 4 7 1014.5 - 0.4 Recent precip. - - - - - -
18/02:30am 14.2 SSE 3 5 1014.5 - 0.4 - - - - - - -
18/02:00am 15.1 NE 3 5 1015.2 - 0.2 - - - - - - -
18/01:30am 15.9 E 6 9 1014.3 - 0.0 - - - - - - -
18/01:00am 16.0 ESE 6 9 1014.6 - 0.0 - - - - - - -
18/12:30am 16.1 ESE 7 10 1015.2 - 0.0 - - - - - - -
18/12:00am 16.1 SE 8 12 1014.7 - 0.0 - - - - - - -
 
Date/Time
WST
Temp

°C
Wind Pressure Rain
since 9am
mm
Weather Cloud Vis
km
Sea
Height
m
Swell
Dir
 
Speed
knots
Gust
knots
hPa Trend Height
m
Period
s
Dir
17/11:30pm 16.2 SE 9 12 1014.8 - 0.0 - - - - - - -
17/11:00pm 16.2 SSE 7 10 1014.6 - 0.0 - - - - - - -
17/10:30pm 16.3 SSE 8 11 1014.8 - 0.0 - - - - - - -
17/10:00pm 16.4 SSE 8 12 1015.2 - 0.0 - - - - - - -
17/09:30pm 16.4 SSE 7 10 1015.2 - 0.0 - - - - - - -
17/09:00pm 16.4 SSE 7 10 1015.4 - 0.0 - - - - - - -
17/08:30pm 16.5 S 6 10 1015.7 - 0.0 - - - - - - -
17/08:00pm 16.5 S 7 11 1015.6 - 0.0 - - - - - - -
17/07:30pm 16.6 S 8 12 1015.5 - 0.0 - - - - - - -
17/07:00pm 16.6 S 9 12 1015.1 - 0.0 - - - - - - -
17/06:30pm 16.4 S 8 11 1015.1 - 0.0 - - - - - - -
17/06:00pm 16.5 S 10 13 1015.0 - 0.0 - - - - - - -
17/05:30pm 16.7 SSW 11 16 1014.7 - 0.0 - - - - - - -
17/05:00pm 17.3 SSW 12 16 1014.4 - 0.0 - - - - - - -
17/04:30pm 17.8 SSW 13 17 1014.2 - 0.0 - - - - - - -

Other Formats:

Comma delimited format used in spreadsheet applications
http://www.bom.gov.au/fwo/IDW60701/IDW60701.95635.axf

JavaScript Object Notation format (JSON) in row-major order
http://www.bom.gov.au/fwo/IDW60701/IDW60701.95635.json